Time;durP1;ratioP1;P1;durP2;ratioP2;P2;SDS_P1;SDS_P2;PMS_P1;PMS_P2;Temp;Humidity;BMP_temperature;BMP_pressure;BME280_temperature;BME280_humidity;BME280_pressure;Samples;Min_cycle;Max_cycle;Signal;HPM_P1;HPM_P2
2022/11/08 00:02:27;;;;;;;5.40;1.75;;;;;;;14.04;67.52;100921.00;5162122;27;20097;-60
2022/11/08 00:04:55;;;;;;;7.03;2.53;;;;;;;14.02;67.74;100923.94;5163069;27;20047;-60
2022/11/08 00:15:39;;;;;;;6.53;1.73;;;;;;;14.00;67.40;100918.78;5163860;27;20137;-60
2022/11/08 00:18:08;;;;;;;6.68;2.10;;;;;;;13.99;67.68;100917.13;5167966;27;20038;-60
2022/11/08 00:20:36;;;;;;;5.00;1.80;;;;;;;13.98;67.59;100914.66;5162770;27;20047;-60
2022/11/08 00:23:04;;;;;;;5.40;1.83;;;;;;;13.97;67.43;100915.72;5167369;27;20081;-60
2022/11/08 00:25:31;;;;;;;6.28;1.85;;;;;;;13.97;67.75;100910.31;5156033;27;20130;-60
2022/11/08 00:27:59;;;;;;;5.75;1.55;;;;;;;13.95;67.25;100913.28;5165507;27;20098;-60
2022/11/08 00:30:27;;;;;;;5.18;1.65;;;;;;;13.95;67.59;100912.44;5167584;27;20502;-60
2022/11/08 00:32:54;;;;;;;5.90;1.80;;;;;;;13.94;67.68;100910.81;5168266;27;21237;-60
2022/11/08 00:35:24;;;;;;;4.88;1.45;;;;;;;13.94;67.68;100905.41;5158876;27;20053;-60
2022/11/08 00:37:51;;;;;;;6.53;1.70;;;;;;;13.93;67.40;100903.78;5167993;27;20046;-60
2022/11/08 00:40:19;;;;;;;4.00;1.80;;;;;;;13.92;67.25;100902.94;5167661;27;20051;-60
2022/11/08 00:42:47;;;;;;;6.28;2.17;;;;;;;13.89;67.40;100900.72;5168443;27;20060;-60
2022/11/08 00:45:14;;;;;;;8.20;1.83;;;;;;;13.88;67.81;100899.09;5159371;27;20042;-60
2022/11/08 00:47:42;;;;;;;6.00;2.05;;;;;;;13.88;67.83;100899.09;5155225;27;20058;-59
2022/11/08 00:50:10;;;;;;;4.88;1.80;;;;;;;13.87;67.38;100896.63;5166849;27;20043;-59
2022/11/08 00:52:39;;;;;;;5.75;1.52;;;;;;;13.86;67.53;100893.16;5168759;27;20127;-60
2022/11/08 00:55:08;;;;;;;5.20;1.95;;;;;;;13.85;67.34;100893.38;5162638;27;20110;-60
2022/11/08 00:57:35;;;;;;;4.07;1.35;;;;;;;13.84;67.44;100895.25;5168805;27;20126;-60
2022/11/08 01:00:23;;;;;;;3.15;1.38;;;;;;;13.82;67.43;100892.00;5166041;27;20563;-60
2022/11/08 01:03:17;;;;;;;6.22;1.50;;;;;;;13.82;67.43;100878.47;5168628;27;20066;-60
2022/11/08 01:05:39;;;;;;;4.30;1.52;;;;;;;13.81;67.51;100887.66;5167309;27;20046;-60
2022/11/08 01:08:09;;;;;;;3.80;1.60;;;;;;;13.81;67.26;100892.22;5168372;27;20058;-60
2022/11/08 01:10:36;;;;;;;4.13;1.60;;;;;;;13.80;67.44;100887.88;5164559;27;20038;-60
2022/11/08 01:13:04;;;;;;;6.95;1.73;;;;;;;13.79;67.34;100892.47;5168921;27;20050;-59
2022/11/08 01:15:34;;;;;;;6.88;1.80;;;;;;;13.79;67.38;100894.34;5161925;27;20049;-60
2022/11/08 01:18:02;;;;;;;5.25;1.88;;;;;;;13.77;67.55;100889.19;5168416;27;20313;-60
2022/11/08 01:20:30;;;;;;;5.10;1.90;;;;;;;13.77;67.43;100889.19;5163780;27;20223;-60
2022/11/08 01:22:58;;;;;;;7.15;2.20;;;;;;;13.76;67.57;100882.16;5165997;27;20078;-60
2022/11/08 01:25:27;;;;;;;8.40;2.45;;;;;;;13.75;67.62;100875.09;5165082;27;20065;-60
2022/11/08 01:27:55;;;;;;;3.90;1.75;;;;;;;13.76;67.35;100875.94;5165580;27;20049;-60
2022/11/08 01:30:23;;;;;;;5.18;1.98;;;;;;;13.75;67.65;100874.28;5166891;27;20462;-60
2022/11/08 01:32:50;;;;;;;5.93;1.98;;;;;;;13.75;67.30;100877.81;5155847;27;20050;-60
2022/11/08 01:35:18;;;;;;;5.75;1.90;;;;;;;13.74;67.33;100869.94;5167089;27;20043;-60
2022/11/08 01:37:46;;;;;;;6.35;2.00;;;;;;;13.74;67.19;100870.78;5162780;27;20525;-60
2022/11/08 01:40:14;;;;;;;3.35;1.42;;;;;;;13.74;67.46;100869.94;5166986;27;20070;-60
2022/11/08 01:42:43;;;;;;;6.78;1.70;;;;;;;13.73;67.54;100862.91;5165110;27;20043;-61
2022/11/08 01:45:11;;;;;;;3.47;1.98;;;;;;;13.73;67.64;100860.19;5165855;27;20058;-58
2022/11/08 01:47:39;;;;;;;6.07;1.75;;;;;;;13.72;67.32;100853.16;5165152;27;20050;-59
2022/11/08 01:50:10;;;;;;;6.60;2.17;;;;;;;13.72;67.54;100850.47;5164658;27;20059;-58
2022/11/08 01:52:41;;;;;;;4.85;1.90;;;;;;;13.71;67.25;100843.41;5166941;27;20046;-58
2022/11/08 01:55:15;;;;;;;5.88;1.92;;;;;;;13.71;67.19;100844.25;5152990;27;20049;-59
2022/11/08 01:57:49;;;;;;;4.68;1.60;;;;;;;13.68;67.21;100836.63;5160279;27;20051;-58
2022/11/08 02:00:18;;;;;;;8.63;2.13;;;;;;;13.61;67.43;100823.28;5158498;27;20050;-59
2022/11/08 02:02:53;;;;;;;5.28;1.52;;;;;;;13.70;67.22;100826.41;5166355;27;20047;-59
2022/11/08 02:05:25;;;;;;;6.85;2.22;;;;;;;13.68;67.19;100829.34;5149981;27;20049;-59
2022/11/08 02:07:57;;;;;;;6.80;1.50;;;;;;;13.69;67.51;100824.75;5166337;27;20053;-59
2022/11/08 02:10:29;;;;;;;5.78;1.60;;;;;;;13.68;67.16;100815.03;5164512;27;20042;-59
2022/11/08 02:12:59;;;;;;;4.85;2.30;;;;;;;13.67;67.50;100810.69;5154752;27;20054;-59
2022/11/08 02:15:32;;;;;;;5.10;1.45;;;;;;;13.66;67.34;100815.25;5165892;27;20589;-60
2022/11/08 02:18:00;;;;;;;5.78;1.50;;;;;;;13.67;67.31;100805.28;5159011;27;20043;-59
2022/11/08 02:20:28;;;;;;;5.68;1.58;;;;;;;13.66;67.17;100809.84;5162797;27;20378;-60
2022/11/08 02:23:02;;;;;;;4.55;1.45;;;;;;;13.66;67.17;100809.03;5164383;27;20042;-60
2022/11/08 02:25:31;;;;;;;5.60;2.03;;;;;;;13.65;67.05;100799.31;5166296;27;20149;-60
2022/11/08 02:27:59;;;;;;;3.72;1.30;;;;;;;13.62;67.60;100797.91;5163429;27;20046;-60
2022/11/08 02:30:32;;;;;;;4.28;1.60;;;;;;;13.62;67.41;100791.69;5165679;27;20050;-60
2022/11/08 02:33:00;;;;;;;5.20;1.58;;;;;;;13.62;67.56;100773.59;5164964;27;20050;-60
2022/11/08 02:35:27;;;;;;;7.45;1.98;;;;;;;13.57;66.88;100775.41;5153338;27;20047;-60
2022/11/08 02:37:55;;;;;;;4.68;1.50;;;;;;;13.60;67.09;100773.03;5164598;27;20407;-60
2022/11/08 02:40:23;;;;;;;4.50;1.60;;;;;;;13.60;67.41;100769.50;5165242;27;20047;-60
2022/11/08 02:42:52;;;;;;;3.50;1.50;;;;;;;13.58;67.06;100763.53;5166788;27;20045;-60
2022/11/08 02:45:20;;;;;;;4.82;1.30;;;;;;;13.59;67.31;100775.97;5164046;27;20062;-60
2022/11/08 02:47:47;;;;;;;4.32;1.42;;;;;;;13.58;67.07;100760.81;5157068;27;20480;-60
2022/11/08 02:50:15;;;;;;;6.65;2.15;;;;;;;13.55;67.38;100751.34;5165899;27;20129;-60
2022/11/08 02:52:43;;;;;;;5.28;1.38;;;;;;;13.57;67.19;100753.78;5158351;27;20054;-60
2022/11/08 02:55:10;;;;;;;5.03;2.10;;;;;;;13.56;67.11;100749.44;5157020;27;20111;-60
2022/11/08 02:57:38;;;;;;;4.20;2.00;;;;;;;13.55;67.13;100743.22;5166649;27;20047;-60
2022/11/08 03:00:09;;;;;;;3.70;1.38;;;;;;;13.53;67.17;100737.25;5163427;27;20046;-60
2022/11/08 03:02:36;;;;;;;9.35;1.80;;;;;;;13.53;67.11;100734.56;5159833;27;20046;-60
2022/11/08 03:05:05;;;;;;;2.65;1.05;;;;;;;13.52;67.10;100730.22;5151775;27;20061;-59
2022/11/08 03:07:33;;;;;;;5.20;1.70;;;;;;;13.52;67.39;100724.00;5160070;27;20050;-60
2022/11/08 03:10:00;;;;;;;3.50;1.67;;;;;;;13.50;67.07;100718.84;5151830;27;20045;-60
2022/11/08 03:12:28;;;;;;;4.00;1.45;;;;;;;13.48;67.09;100712.88;5164617;27;20051;-59
2022/11/08 03:14:56;;;;;;;4.72;1.80;;;;;;;13.48;67.01;100706.66;5159031;27;20082;-59
2022/11/08 03:17:25;;;;;;;3.28;1.33;;;;;;;13.48;67.40;100703.94;5166228;27;20065;-60
2022/11/08 03:19:53;;;;;;;3.83;1.58;;;;;;;13.47;67.01;100705.84;5162096;27;20068;-60
2022/11/08 03:22:20;;;;;;;3.05;1.30;;;;;;;13.47;67.00;100705.00;5163939;27;20042;-61
2022/11/08 03:24:48;;;;;;;4.05;1.50;;;;;;;13.47;67.03;100703.13;5165607;27;20051;-60
2022/11/08 03:27:17;;;;;;;2.83;1.40;;;;;;;13.47;67.38;100707.72;5162894;27;20046;-60
2022/11/08 03:29:45;;;;;;;6.10;1.50;;;;;;;13.47;66.94;100702.31;5162933;27;20051;-61
2022/11/08 03:32:14;;;;;;;3.22;1.30;;;;;;;13.46;67.56;100703.38;5162260;27;20402;-60
2022/11/08 03:34:43;;;;;;;4.72;1.50;;;;;;;13.44;67.02;100709.03;5162049;27;20039;-60
2022/11/08 03:37:11;;;;;;;4.50;1.60;;;;;;;13.43;67.21;100693.88;5158437;27;20050;-61
2022/11/08 03:39:39;;;;;;;2.95;1.35;;;;;;;13.45;66.97;100693.63;5161535;27;20039;-61
2022/11/08 03:42:07;;;;;;;6.10;1.80;;;;;;;13.45;67.02;100685.53;5159132;27;20046;-60
2022/11/08 03:44:34;;;;;;;3.65;1.42;;;;;;;13.42;67.52;100673.34;5164529;27;20064;-60
2022/11/08 03:47:02;;;;;;;4.50;1.35;;;;;;;13.42;66.91;100669.84;5163900;27;20542;-60
2022/11/08 03:49:30;;;;;;;3.60;1.60;;;;;;;13.43;67.26;100666.06;5158724;27;20047;-61
2022/11/08 03:51:59;;;;;;;3.88;1.58;;;;;;;13.42;67.37;100665.25;5160086;27;20047;-61
2022/11/08 03:54:27;;;;;;;8.73;1.65;;;;;;;13.42;67.04;100653.63;5160281;27;20045;-60
2022/11/08 03:56:54;;;;;;;3.22;1.48;;;;;;;13.40;66.83;100656.59;5162539;27;20039;-61
2022/11/08 03:59:22;;;;;;;4.05;1.73;;;;;;;13.39;67.23;100656.81;5149415;27;20050;-60
2022/11/08 04:01:50;;;;;;;6.30;1.70;;;;;;;13.40;66.76;100650.38;5162729;27;20111;-60
2022/11/08 04:04:18;;;;;;;6.10;2.35;;;;;;;13.39;66.74;100648.72;5168099;27;20049;-60
2022/11/08 04:06:45;;;;;;;5.47;1.88;;;;;;;13.38;67.04;100642.50;5167111;27;20053;-61
2022/11/08 04:09:14;;;;;;;7.35;1.65;;;;;;;13.38;66.74;100637.13;5164386;27;20110;-60
2022/11/08 04:17:18;;;;;;;6.20;2.13;;;;;;;13.34;66.92;100623.28;5157773;27;20053;-61
2022/11/08 04:22:31;;;;;;;4.95;2.00;;;;;;;13.33;66.96;100607.34;5166413;27;20057;-60
2022/11/08 04:25:00;;;;;;;5.25;2.35;;;;;;;13.31;66.93;100602.19;5165903;27;20050;-61
2022/11/08 04:27:28;;;;;;;6.43;2.45;;;;;;;13.31;66.82;100604.88;5162557;27;20053;-60
2022/11/08 04:29:55;;;;;;;5.55;2.10;;;;;;;13.31;66.62;100606.78;5168712;27;20369;-60
2022/11/08 04:32:23;;;;;;;9.85;3.13;;;;;;;13.29;67.05;100596.22;5162069;27;20455;-60
2022/11/08 04:34:51;;;;;;;7.85;2.70;;;;;;;13.29;66.50;100600.81;5167723;27;20043;-60
2022/11/08 04:37:18;;;;;;;5.50;2.15;;;;;;;13.28;66.87;100593.75;5169141;27;20050;-61
2022/11/08 04:39:46;;;;;;;7.05;3.47;;;;;;;13.27;66.92;100594.81;5169169;27;20047;-60
2022/11/08 04:42:15;;;;;;;7.70;2.47;;;;;;;13.25;66.78;100592.38;5167335;27;20050;-60
2022/11/08 04:44:43;;;;;;;10.32;2.70;;;;;;;13.24;66.97;100598.03;5165177;27;20047;-60
2022/11/08 04:47:11;;;;;;;8.27;2.72;;;;;;;13.23;66.63;100586.41;5168619;27;20057;-60
2022/11/08 04:49:38;;;;;;;8.93;2.40;;;;;;;13.23;66.83;100574.78;5168977;27;20061;-60
2022/11/08 04:52:07;;;;;;;6.65;2.53;;;;;;;13.20;66.73;100573.41;5165515;27;20077;-60
2022/11/08 04:54:34;;;;;;;4.97;2.13;;;;;;;13.19;66.71;100563.66;5168550;27;20053;-60
2022/11/08 04:57:02;;;;;;;6.10;2.60;;;;;;;13.18;66.98;100545.03;5168891;27;20043;-60
2022/11/08 04:59:31;;;;;;;5.75;2.30;;;;;;;13.18;66.66;100547.72;5150427;27;20051;-59
2022/11/08 05:01:59;;;;;;;5.85;2.15;;;;;;;13.18;66.34;100551.25;5163950;27;20442;-59
2022/11/08 05:04:27;;;;;;;9.07;3.15;;;;;;;13.17;66.49;100548.78;5163078;27;20045;-59
2022/11/08 05:06:54;;;;;;;6.47;2.22;;;;;;;13.16;66.29;100536.34;5156954;27;20054;-58
2022/11/08 05:09:22;;;;;;;5.53;2.17;;;;;;;13.16;66.36;100541.72;5166289;27;20043;-59
2022/11/08 05:11:50;;;;;;;10.05;3.30;;;;;;;13.14;66.22;100531.19;5160114;27;20048;-60
2022/11/08 05:14:18;;;;;;;5.10;2.22;;;;;;;13.15;66.17;100537.41;5153440;27;20050;-59
2022/11/08 05:16:47;;;;;;;5.43;2.15;;;;;;;13.14;66.43;100539.28;5164279;27;20055;-59
2022/11/08 05:23:22;;;;;;;6.50;2.03;;;;;;;13.14;66.65;100544.66;5165910;27;20049;-59
2022/11/08 05:24:47;;;;;;;8.13;2.40;;;;;;;13.13;66.18;100545.75;5154564;27;20601;-58
2022/11/08 05:27:15;;;;;;;7.40;2.10;;;;;;;13.12;66.17;100538.72;5167424;27;20043;-59
2022/11/08 05:29:43;;;;;;;7.63;2.30;;;;;;;13.12;66.57;100530.59;5157793;27;20594;-58
2022/11/08 05:32:12;;;;;;;5.68;2.00;;;;;;;13.12;66.17;100522.50;5156281;27;20042;-61
2022/11/08 05:34:39;;;;;;;5.60;2.33;;;;;;;13.11;66.26;100526.28;5165653;27;20050;-59
2022/11/08 05:37:07;;;;;;;3.95;1.88;;;;;;;13.08;66.35;100521.38;5167290;27;20060;-60
2022/11/08 05:39:35;;;;;;;6.00;1.90;;;;;;;13.10;65.94;100524.66;5161967;27;20057;-59
2022/11/08 05:42:04;;;;;;;5.25;1.90;;;;;;;13.10;66.22;100521.13;5162060;27;20039;-59
2022/11/08 05:44:31;;;;;;;4.70;1.88;;;;;;;13.11;66.18;100528.16;5150439;27;20122;-60
2022/11/08 05:46:59;;;;;;;7.72;1.90;;;;;;;13.08;66.13;100524.06;5162120;27;20591;-59
2022/11/08 05:49:28;;;;;;;7.80;1.98;;;;;;;13.08;66.27;100524.06;5167573;27;20451;-59
2022/11/08 05:51:56;;;;;;;5.70;2.28;;;;;;;13.08;65.96;100523.25;5153890;27;20047;-59
2022/11/08 05:54:24;;;;;;;7.05;2.53;;;;;;;13.08;66.00;100528.66;5157932;27;20046;-59
2022/11/08 05:56:51;;;;;;;4.43;1.75;;;;;;;13.08;65.67;100528.66;5161821;27;20047;-59
2022/11/08 05:59:19;;;;;;;7.28;2.10;;;;;;;13.08;65.81;100523.25;5161165;27;20050;-60
2022/11/08 06:01:47;;;;;;;7.47;2.60;;;;;;;13.08;66.09;100517.84;5159595;27;20042;-60
2022/11/08 06:04:15;;;;;;;6.40;2.22;;;;;;;13.07;65.89;100519.75;5162273;27;20053;-60
2022/11/08 06:06:44;;;;;;;9.45;2.33;;;;;;;13.07;65.85;100508.94;5156657;27;20613;-60
2022/11/08 06:09:11;;;;;;;5.57;2.08;;;;;;;13.06;65.64;100515.41;5166003;27;20046;-59
2022/11/08 06:11:39;;;;;;;5.00;1.70;;;;;;;13.04;65.71;100515.66;5166396;27;20039;-59
2022/11/08 06:14:07;;;;;;;7.80;2.95;;;;;;;13.02;65.88;100523.16;5165009;27;20165;-59
2022/11/08 06:16:34;;;;;;;4.25;1.73;;;;;;;13.03;65.81;100519.41;5161595;27;20162;-59
2022/11/08 06:19:02;;;;;;;7.40;2.50;;;;;;;13.07;65.32;100524.31;5164958;27;20046;-59
2022/11/08 06:21:30;;;;;;;5.20;1.95;;;;;;;13.12;66.63;100513.59;5159262;27;20050;-60
2022/11/08 06:23:59;;;;;;;6.68;2.10;;;;;;;13.11;65.85;100511.97;5157747;27;20064;-59
2022/11/08 06:26:27;;;;;;;5.72;1.95;;;;;;;13.10;65.40;100515.72;5166990;27;20062;-59
2022/11/08 06:28:55;;;;;;;4.60;2.13;;;;;;;13.09;65.52;100514.91;4804092;27;9999979;-59
2022/11/08 06:31:22;;;;;;;6.53;1.85;;;;;;;13.07;65.94;100517.03;5160542;27;20046;-59
2022/11/08 06:33:50;;;;;;;3.83;1.83;;;;;;;13.06;65.39;100511.91;5161028;27;20503;-59
2022/11/08 06:36:19;;;;;;;7.10;2.15;;;;;;;13.06;65.44;100526.19;5158192;27;20073;-59
2022/11/08 06:38:47;;;;;;;5.28;2.20;;;;;;;13.06;65.85;100520.81;5162625;27;20057;-59
2022/11/08 06:41:19;;;;;;;4.57;2.20;;;;;;;13.05;65.72;100508.38;5162588;27;20058;-60
2022/11/08 06:43:47;;;;;;;6.00;1.92;;;;;;;13.05;65.34;100521.88;5162545;27;20050;-59
2022/11/08 06:46:15;;;;;;;9.23;2.05;;;;;;;13.04;65.74;100520.22;5155373;27;20046;-60
2022/11/08 06:48:43;;;;;;;7.03;2.00;;;;;;;13.02;65.54;100512.38;5162685;27;20054;-59
2022/11/08 06:51:11;;;;;;;5.32;2.20;;;;;;;13.03;65.58;100511.31;5161501;27;20051;-60
2022/11/08 06:53:38;;;;;;;5.50;2.30;;;;;;;13.01;65.54;100516.16;5156384;27;20548;-61
2022/11/08 06:56:06;;;;;;;7.15;2.28;;;;;;;13.00;65.66;100511.81;5160643;27;20050;-60
2022/11/08 06:58:36;;;;;;;4.22;2.10;;;;;;;12.98;65.78;100526.59;5160315;27;20141;-59
2022/11/08 07:01:04;;;;;;;6.03;1.98;;;;;;;12.98;65.79;100530.13;5156937;27;20047;-59
2022/11/08 07:03:32;;;;;;;4.85;2.10;;;;;;;12.97;65.52;100524.97;5162186;27;20175;-59
2022/11/08 07:06:01;;;;;;;6.50;2.17;;;;;;;12.94;65.40;100523.59;5160852;27;20065;-61
2022/11/08 07:08:29;;;;;;;6.43;1.85;;;;;;;12.96;65.64;100526.03;5160975;27;20046;-60
2022/11/08 07:10:57;;;;;;;6.30;2.78;;;;;;;12.97;65.73;100530.38;5163169;27;20046;-60
2022/11/08 07:13:25;;;;;;;5.43;2.60;;;;;;;12.99;65.76;100536.34;5152372;27;20058;-61
2022/11/08 07:15:57;;;;;;;7.20;2.83;;;;;;;12.99;65.33;100525.53;5163056;27;20415;-61
2022/11/08 07:18:25;;;;;;;4.55;1.95;;;;;;;12.97;65.37;100533.88;5154920;27;20042;-60
2022/11/08 07:20:53;;;;;;;5.68;1.70;;;;;;;12.97;65.26;100528.50;5160646;27;20061;-60
2022/11/08 07:23:21;;;;;;;3.92;1.63;;;;;;;12.98;65.95;100527.44;5155688;27;20042;-60
2022/11/08 07:25:49;;;;;;;3.88;1.70;;;;;;;12.99;65.31;100520.16;5166334;27;20049;-60
2022/11/08 07:28:19;;;;;;;3.85;1.65;;;;;;;13.00;65.28;100524.47;5163485;27;20049;-60
2022/11/08 07:30:47;;;;;;;5.82;1.77;;;;;;;12.98;65.51;100530.13;5164859;27;20066;-60
2022/11/08 07:33:17;;;;;;;4.90;1.85;;;;;;;12.99;65.56;100526.38;5165907;27;20047;-60
2022/11/08 07:35:46;;;;;;;5.32;1.83;;;;;;;12.99;65.88;100525.53;5162049;27;20057;-60
2022/11/08 07:38:14;;;;;;;3.90;1.90;;;;;;;12.98;65.79;100522.03;5159466;27;20042;-60
2022/11/08 07:40:42;;;;;;;2.92;1.50;;;;;;;13.00;65.42;100525.31;5162502;27;20047;-59
2022/11/08 07:43:10;;;;;;;3.58;1.35;;;;;;;13.01;65.60;100526.13;5153783;27;20053;-60
2022/11/08 07:45:40;;;;;;;6.82;1.40;;;;;;;12.99;65.16;100531.75;5162238;27;20058;-59
2022/11/08 07:48:09;;;;;;;7.75;1.50;;;;;;;12.99;65.55;100526.38;5151119;27;20103;-60
2022/11/08 07:50:41;;;;;;;2.70;1.63;;;;;;;13.03;65.17;100515.91;5156227;27;20046;-60
2022/11/08 07:53:10;;;;;;;2.63;1.23;;;;;;;13.04;65.22;100517.53;5155910;27;20353;-59
2022/11/08 07:55:39;;;;;;;3.85;1.50;;;;;;;13.04;65.47;100514.84;5160610;27;20043;-59
2022/11/08 07:58:09;;;;;;;5.57;1.60;;;;;;;13.08;64.64;100515.16;5160898;27;20070;-60
2022/11/08 08:00:39;;;;;;;3.03;1.48;;;;;;;13.03;64.96;100505.94;5148320;27;20054;-60
2022/11/08 08:03:10;;;;;;;2.78;1.20;;;;;;;13.07;65.63;100503.56;5160745;27;20050;-60
2022/11/08 08:05:41;;;;;;;4.45;1.83;;;;;;;13.06;65.78;100514.59;5158989;27;20050;-59
2022/11/08 08:08:11;;;;;;;3.05;1.58;;;;;;;13.07;65.31;100508.94;5161063;27;20066;-59
2022/11/08 08:10:39;;;;;;;3.33;1.35;;;;;;;13.08;65.70;100515.97;5152074;27;20050;-59
2022/11/08 08:13:07;;;;;;;3.15;1.52;;;;;;;13.17;65.55;100505.63;5158240;27;20083;-59
2022/11/08 08:15:35;;;;;;;6.57;1.50;;;;;;;13.15;65.39;100523.91;5154245;27;20049;-59
2022/11/08 08:18:04;;;;;;;4.15;1.63;;;;;;;13.13;65.07;100515.25;5160786;27;20050;-59
2022/11/08 08:20:33;;;;;;;4.03;1.67;;;;;;;13.30;66.50;100518.75;5156144;27;20050;-59
2022/11/08 08:23:02;;;;;;;3.83;1.73;;;;;;;13.29;65.29;100520.66;5158150;27;20063;-59
2022/11/08 08:25:30;;;;;;;4.43;1.48;;;;;;;13.52;64.89;100516.09;5160692;27;20046;-59
2022/11/08 08:28:00;;;;;;;6.47;1.40;;;;;;;13.40;64.62;100527.00;5156075;27;20419;-59
2022/11/08 08:30:30;;;;;;;2.00;1.25;;;;;;;13.48;64.51;100523.88;5162620;27;20039;-59
2022/11/08 08:33:03;;;;;;;3.72;1.02;;;;;;;13.76;65.03;100535.59;5163898;27;20460;-58
2022/11/08 08:35:52;;;;;;;4.38;1.38;;;;;;;13.51;65.11;100533.38;5159171;27;20071;-63
2022/11/08 08:38:22;;;;;;;3.13;1.50;;;;;;;13.41;64.70;100546.72;5158520;27;20041;-61
2022/11/08 08:40:50;;;;;;;4.22;1.52;;;;;;;13.29;64.76;100554.91;5162254;27;20047;-60
2022/11/08 08:43:18;;;;;;;2.75;1.45;;;;;;;13.34;65.34;100536.09;5163076;27;20062;-60
2022/11/08 08:45:47;;;;;;;3.90;1.55;;;;;;;13.29;65.06;100533.31;5161002;27;20491;-59
2022/11/08 08:48:15;;;;;;;6.93;1.63;;;;;;;13.37;64.99;100540.19;5168295;27;20053;-60
2022/11/08 08:50:43;;;;;;;4.63;1.70;;;;;;;13.48;64.56;100526.59;5165222;27;20050;-58
2022/11/08 08:53:10;;;;;;;2.30;1.38;;;;;;;13.57;63.92;100524.28;5177558;27;20039;-58
2022/11/08 08:55:40;;;;;;;2.22;1.30;;;;;;;13.75;63.34;100510.47;5166160;27;20054;-60
2022/11/08 08:58:09;;;;;;;2.40;1.50;;;;;;;13.92;63.28;100527.41;5168494;27;20047;-57
2022/11/08 09:00:37;;;;;;;2.53;1.50;;;;;;;14.10;62.65;100525.44;5160414;27;20055;-60
2022/11/08 09:03:25;;;;;;;5.65;1.30;;;;;;;14.19;61.96;100508.53;5164605;27;20064;-59
2022/11/08 09:05:52;;;;;;;2.40;1.48;;;;;;;14.29;61.55;100497.84;5166396;27;20498;-58
2022/11/08 09:08:20;;;;;;;5.10;1.60;;;;;;;14.33;61.59;100498.94;5165741;27;20043;-57
2022/11/08 09:10:54;;;;;;;2.65;1.50;;;;;;;14.33;61.52;100493.53;5161447;27;20050;-57
2022/11/08 09:13:22;;;;;;;3.03;1.30;;;;;;;14.36;61.57;100499.50;5163377;27;20047;-57
2022/11/08 09:15:50;;;;;;;5.03;1.38;;;;;;;14.47;61.11;100517.50;5158335;27;20045;-58
2022/11/08 09:18:18;;;;;;;3.17;1.52;;;;;;;14.60;61.05;100517.09;5164108;27;20056;-58
2022/11/08 09:20:46;;;;;;;3.28;1.30;;;;;;;14.73;61.05;100519.38;5166518;27;20130;-58
2022/11/08 09:23:16;;;;;;;3.22;1.33;;;;;;;14.88;60.09;100510.56;5163790;27;20042;-59
2022/11/08 09:25:45;;;;;;;4.40;1.52;;;;;;;15.07;59.80;100500.97;5163224;27;20046;-58
2022/11/08 09:28:14;;;;;;;4.85;1.30;;;;;;;15.11;59.26;100499.38;5158498;27;20053;-58
2022/11/08 09:30:41;;;;;;;3.95;1.52;;;;;;;15.03;59.75;100501.75;5165902;27;20109;-59
2022/11/08 09:33:09;;;;;;;5.35;1.80;;;;;;;15.00;60.51;100494.97;4801827;27;10000459;-58
2022/11/08 09:35:37;;;;;;;2.92;1.15;;;;;;;14.93;60.12;100488.97;5161485;27;20057;-57
2022/11/08 09:38:06;;;;;;;3.30;1.30;;;;;;;14.76;60.93;100491.00;5163287;27;20069;-60
2022/11/08 09:40:38;;;;;;;5.30;1.35;;;;;;;14.64;61.44;100491.16;5158792;27;20054;-58
2022/11/08 09:43:23;;;;;;;2.75;1.38;;;;;;;14.47;61.29;100498.56;5162985;27;20043;-58
2022/11/08 09:45:54;;;;;;;4.40;1.30;;;;;;;14.32;62.26;100488.41;5157687;27;20065;-58
2022/11/08 09:48:27;;;;;;;2.90;1.50;;;;;;;14.19;62.89;100496.91;5153638;27;20042;-58
2022/11/08 09:50:59;;;;;;;3.47;1.48;;;;;;;14.15;63.71;100493.91;5163483;27;20043;-58
2022/11/08 09:53:34;;;;;;;3.50;1.60;;;;;;;14.15;62.99;100506.59;5160368;27;20042;-58
2022/11/08 09:56:07;;;;;;;2.65;1.55;;;;;;;14.14;63.00;100510.38;5151700;27;20047;-58
2022/11/08 09:58:42;;;;;;;3.05;1.67;;;;;;;14.10;63.33;100515.47;5162564;27;20141;-59
2022/11/08 10:01:11;;;;;;;3.67;1.58;;;;;;;14.12;64.05;100526.84;5161689;27;20060;-58
2022/11/08 10:03:43;;;;;;;6.00;1.30;;;;;;;14.08;63.27;100522.19;5153284;27;20061;-58
2022/11/08 10:06:28;;;;;;;5.30;1.30;;;;;;;14.06;63.56;100519.72;5154547;27;20526;-58
2022/11/08 10:09:06;;;;;;;3.33;1.27;;;;;;;14.01;63.66;100516.97;5159701;27;20054;-58
2022/11/08 10:11:45;;;;;;;4.95;1.30;;;;;;;13.95;63.99;100512.56;5157935;27;20153;-59
2022/11/08 10:14:32;;;;;;;9.50;1.67;;;;;;;14.02;64.05;100510.50;5158842;27;20050;-59
2022/11/08 10:17:23;;;;;;;2.40;1.45;;;;;;;13.96;64.09;100517.72;5160456;27;20137;-58
2022/11/08 10:20:14;;;;;;;4.22;1.80;;;;;;;13.94;64.88;100508.25;5150733;27;20051;-59
2022/11/08 10:22:52;;;;;;;3.65;1.35;;;;;;;13.94;64.38;100519.88;5152085;27;20039;-58
2022/11/08 10:25:30;;;;;;;4.88;1.55;;;;;;;13.94;65.42;100522.56;5159865;27;20043;-58
2022/11/08 10:28:02;;;;;;;4.15;1.52;;;;;;;13.96;64.58;100522.31;5144069;27;20054;-58
2022/11/08 10:30:35;;;;;;;3.30;1.65;;;;;;;14.26;64.10;100519.16;5154266;27;20055;-59
2022/11/08 10:33:15;;;;;;;2.33;1.10;;;;;;;14.07;64.42;100528.66;5159764;27;20061;-58
2022/11/08 10:35:48;;;;;;;6.32;1.42;;;;;;;13.98;64.67;100531.00;5160449;27;20121;-58
2022/11/08 10:38:19;;;;;;;3.55;1.77;;;;;;;13.93;64.75;100531.75;5160274;27;20058;-58
2022/11/08 10:40:56;;;;;;;3.20;1.48;;;;;;;13.96;65.01;100527.72;5151386;27;20055;-58
2022/11/08 10:43:33;;;;;;;4.28;2.22;;;;;;;13.92;64.85;100530.09;5159180;27;20064;-58
2022/11/08 10:46:03;;;;;;;5.43;1.60;;;;;;;13.94;65.57;100537.97;5153526;27;20057;-58
2022/11/08 10:48:34;;;;;;;2.67;1.30;;;;;;;13.92;65.01;100534.69;5165045;27;20382;-58
2022/11/08 10:51:01;;;;;;;5.55;1.60;;;;;;;13.89;65.04;100533.31;5164592;27;20133;-58
2022/11/08 10:53:31;;;;;;;5.85;1.52;;;;;;;13.96;65.21;100536.63;5158031;27;20043;-58
2022/11/08 10:56:00;;;;;;;2.97;1.38;;;;;;;14.00;64.94;100542.34;5165185;27;20067;-59
2022/11/08 10:58:31;;;;;;;3.33;1.45;;;;;;;13.97;64.60;100542.88;5153418;27;20043;-59
2022/11/08 11:01:03;;;;;;;3.20;2.17;;;;;;;13.96;65.20;100539.34;5159440;27;20047;-57
2022/11/08 11:03:31;;;;;;;4.10;1.50;;;;;;;13.98;65.25;100537.22;5161038;27;20039;-57
2022/11/08 11:06:01;;;;;;;3.83;1.30;;;;;;;13.96;65.22;100535.81;5157934;27;20201;-57
2022/11/08 11:08:29;;;;;;;2.60;1.42;;;;;;;13.94;65.45;100522.56;5164459;27;20105;-57
2022/11/08 11:11:22;;;;;;;2.28;1.30;;;;;;;13.83;65.47;100510.03;5162658;27;20418;-58
2022/11/08 11:14:05;;;;;;;1.88;1.33;;;;;;;13.95;65.71;100532.31;5159698;27;20063;-60
2022/11/08 11:16:35;;;;;;;2.88;1.48;;;;;;;13.95;65.57;100526.91;5153160;27;20064;-58
2022/11/08 11:19:05;;;;;;;5.22;1.40;;;;;;;14.06;66.51;100494.59;5160651;27;20047;-59
2022/11/08 11:21:37;;;;;;;3.17;1.33;;;;;;;14.18;65.05;100498.78;5157762;27;20114;-58
2022/11/08 11:24:09;;;;;;;3.15;1.42;;;;;;;14.08;65.76;100498.69;5157696;27;20047;-58
2022/11/08 11:26:43;;;;;;;3.67;1.52;;;;;;;14.07;65.57;100497.03;5153758;27;20122;-58
2022/11/08 11:29:20;;;;;;;3.88;1.75;;;;;;;14.08;65.71;100487.88;5162735;27;20046;-58
2022/11/08 11:31:50;;;;;;;;;;;;;;;14.10;66.04;100479.50;5159396;27;20139;-58
2022/11/08 11:34:41;;;;;;;5.95;1.30;;;;;;;14.26;64.76;100475.91;5164401;27;19922;-57
2022/11/08 11:37:18;;;;;;;4.45;1.85;;;;;;;14.25;65.23;100466.97;5163723;27;20496;-58
2022/11/08 11:39:55;;;;;;;2.22;1.23;;;;;;;14.37;64.79;100456.00;5151814;27;20053;-57
2022/11/08 11:42:27;;;;;;;4.72;1.40;;;;;;;14.64;65.45;100456.81;5159602;27;20057;-58
2022/11/08 11:45:18;;;;;;;3.47;1.50;;;;;;;14.90;63.21;100471.34;5161331;27;20054;-58
2022/11/08 11:47:52;;;;;;;3.45;1.33;;;;;;;14.97;62.67;100465.72;5160155;27;20073;-58
2022/11/08 11:50:28;;;;;;;3.90;1.73;;;;;;;15.37;61.84;100465.16;5159026;27;20061;-60
2022/11/08 11:52:57;;;;;;;4.00;1.45;;;;;;;15.49;61.44;100468.47;5158181;27;20055;-59
2022/11/08 11:55:32;;;;;;;4.05;1.45;;;;;;;15.35;61.30;100461.91;5165477;27;20057;-59
2022/11/08 11:58:10;;;;;;;5.47;1.92;;;;;;;15.28;62.18;100470.25;5160234;27;20046;-58